sensor_id;sensor_type;location;lat;lon;timestamp;pressure;altitude;pressure_sealevel;temperature;humidity
4834;BME280;12895;51.064;7.028;2024-03-17T00:02:41;101567.81;;;7.15;77.57
4834;BME280;12895;51.064;7.028;2024-03-17T00:05:29;101566.28;;;7.14;77.08
4834;BME280;12895;51.064;7.028;2024-03-17T00:08:17;101558.91;;;7.11;77.69
4834;BME280;12895;51.064;7.028;2024-03-17T00:11:06;101564.06;;;7.09;77.50
4834;BME280;12895;51.064;7.028;2024-03-17T00:13:53;101560.13;;;7.10;77.57
4834;BME280;12895;51.064;7.028;2024-03-17T00:16:41;101556.56;;;7.10;77.61
4834;BME280;12895;51.064;7.028;2024-03-17T00:19:29;101549.13;;;7.10;78.11
4834;BME280;12895;51.064;7.028;2024-03-17T00:22:16;101549.47;;;7.12;77.79
4834;BME280;12895;51.064;7.028;2024-03-17T00:25:04;101532.16;;;7.12;77.93
4834;BME280;12895;51.064;7.028;2024-03-17T00:27:50;101531.41;;;7.11;77.91
4834;BME280;12895;51.064;7.028;2024-03-17T00:30:41;101530.63;;;7.11;77.43
4834;BME280;12895;51.064;7.028;2024-03-17T00:33:29;101533.47;;;7.07;77.67
4834;BME280;12895;51.064;7.028;2024-03-17T00:36:16;101534.66;;;7.06;78.00
4834;BME280;12895;51.064;7.028;2024-03-17T00:39:03;101532.25;;;7.08;78.22
4834;BME280;12895;51.064;7.028;2024-03-17T00:41:50;101538.53;;;7.09;78.18
4834;BME280;12895;51.064;7.028;2024-03-17T00:44:38;101531.41;;;7.11;77.67
4834;BME280;12895;51.064;7.028;2024-03-17T00:47:25;101532.63;;;7.10;77.93
4834;BME280;12895;51.064;7.028;2024-03-17T00:50:13;101525.91;;;7.11;77.81
4834;BME280;12895;51.064;7.028;2024-03-17T00:53:00;101525.91;;;7.11;77.27
4834;BME280;12895;51.064;7.028;2024-03-17T00:55:52;101522.84;;;7.09;77.38
4834;BME280;12895;51.064;7.028;2024-03-17T00:58:38;101515.44;;;7.06;77.31
4834;BME280;12895;51.064;7.028;2024-03-17T01:01:26;101509.59;;;7.04;77.93
4834;BME280;12895;51.064;7.028;2024-03-17T01:04:14;101515.09;;;7.04;78.13
4834;BME280;12895;51.064;7.028;2024-03-17T01:07:03;101516.63;;;7.05;78.02
4834;BME280;12895;51.064;7.028;2024-03-17T01:09:50;101512.69;;;7.06;78.18
4834;BME280;12895;51.064;7.028;2024-03-17T01:12:36;101508.72;;;7.07;78.66
4834;BME280;12895;51.064;7.028;2024-03-17T01:15:24;101499.28;;;7.08;79.08
4834;BME280;12895;51.064;7.028;2024-03-17T01:18:10;101502.47;;;7.07;78.91
4834;BME280;12895;51.064;7.028;2024-03-17T01:20:58;101502.47;;;7.07;78.79
4834;BME280;12895;51.064;7.028;2024-03-17T01:23:48;101498.19;;;7.06;78.77
4834;BME280;12895;51.064;7.028;2024-03-17T01:26:36;101497.72;;;7.07;78.46
4834;BME280;12895;51.064;7.028;2024-03-17T01:29:23;101497.06;;;7.03;78.26
4834;BME280;12895;51.064;7.028;2024-03-17T01:32:11;101493.97;;;7.01;78.43
4834;BME280;12895;51.064;7.028;2024-03-17T01:34:58;101498.69;;;7.01;77.83
4834;BME280;12895;51.064;7.028;2024-03-17T01:37:45;101497.25;;;6.96;77.58
4834;BME280;12895;51.064;7.028;2024-03-17T01:40:33;101491.06;;;6.92;77.89
4834;BME280;12895;51.064;7.028;2024-03-17T01:43:21;101492.19;;;6.95;77.75
4834;BME280;12895;51.064;7.028;2024-03-17T01:46:11;101487.13;;;6.93;78.17
4834;BME280;12895;51.064;7.028;2024-03-17T01:49:00;101480.50;;;6.91;77.93
4834;BME280;12895;51.064;7.028;2024-03-17T01:51:48;101474.75;;;6.85;78.38
4834;BME280;12895;51.064;7.028;2024-03-17T01:54:36;101476.81;;;6.81;78.11
4834;BME280;12895;51.064;7.028;2024-03-17T01:57:25;101479.66;;;6.78;78.68
4834;BME280;12895;51.064;7.028;2024-03-17T02:00:13;101484.38;;;6.77;79.05
4834;BME280;12895;51.064;7.028;2024-03-17T02:03:01;101473.91;;;6.72;79.06
4834;BME280;12895;51.064;7.028;2024-03-17T02:05:48;101473.59;;;6.70;79.71
4834;BME280;12895;51.064;7.028;2024-03-17T02:08:48;101466.50;;;6.69;79.02
4834;BME280;12895;51.064;7.028;2024-03-17T02:11:37;101466.19;;;6.67;79.62
4834;BME280;12895;51.064;7.028;2024-03-17T02:14:25;101471.34;;;6.65;79.54
4834;BME280;12895;51.064;7.028;2024-03-17T02:17:12;101466.72;;;6.62;80.32
4834;BME280;12895;51.064;7.028;2024-03-17T02:19:59;101462.06;;;6.59;80.51
4834;BME280;12895;51.064;7.028;2024-03-17T02:22:47;101469.97;;;6.57;80.30
4834;BME280;12895;51.064;7.028;2024-03-17T02:25:35;101473.91;;;6.56;80.75
4834;BME280;12895;51.064;7.028;2024-03-17T02:28:21;101466.53;;;6.53;80.69
4834;BME280;12895;51.064;7.028;2024-03-17T02:31:09;101463.00;;;6.53;80.65
4834;BME280;12895;51.064;7.028;2024-03-17T02:33:56;101459.13;;;6.50;80.49
4834;BME280;12895;51.064;7.028;2024-03-17T02:36:44;101467.03;;;6.48;79.99
4834;BME280;12895;51.064;7.028;2024-03-17T02:39:34;101464.81;;;6.43;80.69
4834;BME280;12895;51.064;7.028;2024-03-17T02:42:23;101465.66;;;6.40;80.62
4834;BME280;12895;51.064;7.028;2024-03-17T02:45:11;101459.81;;;6.38;80.29
4834;BME280;12895;51.064;7.028;2024-03-17T02:47:58;101466.53;;;6.37;80.47
4834;BME280;12895;51.064;7.028;2024-03-17T02:50:46;101472.88;;;6.34;80.81
4834;BME280;12895;51.064;7.028;2024-03-17T02:53:33;101461.91;;;6.34;81.12
4834;BME280;12895;51.064;7.028;2024-03-17T02:56:22;101454.88;;;6.33;81.27
4834;BME280;12895;51.064;7.028;2024-03-17T02:59:11;101453.31;;;6.32;81.21
4834;BME280;12895;51.064;7.028;2024-03-17T03:02:00;101462.06;;;6.27;80.75
4834;BME280;12895;51.064;7.028;2024-03-17T03:04:47;101471.50;;;6.26;81.38
4834;BME280;12895;51.064;7.028;2024-03-17T03:07:35;101462.91;;;6.24;81.26
4834;BME280;12895;51.064;7.028;2024-03-17T03:10:22;101451.94;;;6.24;81.29
4834;BME280;12895;51.064;7.028;2024-03-17T03:13:11;101463.75;;;6.21;80.81
4834;BME280;12895;51.064;7.028;2024-03-17T03:16:02;101453.63;;;6.18;80.97
4834;BME280;12895;51.064;7.028;2024-03-17T03:18:50;101453.63;;;6.18;81.14
4834;BME280;12895;51.064;7.028;2024-03-17T03:21:37;101450.56;;;6.16;81.37
4834;BME280;12895;51.064;7.028;2024-03-17T03:24:25;101449.00;;;6.15;81.48
4834;BME280;12895;51.064;7.028;2024-03-17T03:27:13;101451.41;;;6.13;81.48
4834;BME280;12895;51.064;7.028;2024-03-17T03:30:01;101445.56;;;6.11;81.35
4834;BME280;12895;51.064;7.028;2024-03-17T03:32:49;101456.97;;;6.10;81.62
4834;BME280;12895;51.064;7.028;2024-03-17T03:35:37;101445.22;;;6.09;82.28
4834;BME280;12895;51.064;7.028;2024-03-17T03:38:24;101446.75;;;6.10;81.91
4834;BME280;12895;51.064;7.028;2024-03-17T03:41:14;101450.03;;;6.05;82.30
4834;BME280;12895;51.064;7.028;2024-03-17T03:44:02;101448.47;;;6.04;82.21
4834;BME280;12895;51.064;7.028;2024-03-17T03:46:51;101452.44;;;6.03;82.41
4834;BME280;12895;51.064;7.028;2024-03-17T03:49:42;101443.47;;;5.99;82.58
4834;BME280;12895;51.064;7.028;2024-03-17T03:52:32;101465.78;;;6.01;82.35
4834;BME280;12895;51.064;7.028;2024-03-17T03:55:19;101457.19;;;5.99;82.47
4834;BME280;12895;51.064;7.028;2024-03-17T03:58:06;101456.06;;;5.97;81.72
4834;BME280;12895;51.064;7.028;2024-03-17T04:00:56;101460.47;;;5.94;81.78
4834;BME280;12895;51.064;7.028;2024-03-17T04:03:45;101461.28;;;5.91;81.79
4834;BME280;12895;51.064;7.028;2024-03-17T04:06:37;101453.13;;;5.88;81.55
4834;BME280;12895;51.064;7.028;2024-03-17T04:09:27;101461.47;;;5.84;81.87
4834;BME280;12895;51.064;7.028;2024-03-17T04:12:15;101457.19;;;5.83;81.48
4834;BME280;12895;51.064;7.028;2024-03-17T04:15:03;101449.03;;;5.80;81.47
4834;BME280;12895;51.064;7.028;2024-03-17T04:17:52;101443.59;;;5.76;81.71
4834;BME280;12895;51.064;7.028;2024-03-17T04:20:41;101440.41;;;5.78;81.58
4834;BME280;12895;51.064;7.028;2024-03-17T04:23:29;101435.69;;;5.78;82.22
4834;BME280;12895;51.064;7.028;2024-03-17T04:26:18;101435.69;;;5.78;81.84
4834;BME280;12895;51.064;7.028;2024-03-17T04:29:09;101439.63;;;5.77;82.10
4834;BME280;12895;51.064;7.028;2024-03-17T04:31:57;101429.88;;;5.76;82.32
4834;BME280;12895;51.064;7.028;2024-03-17T04:34:44;101419.25;;;5.78;82.56
4834;BME280;12895;51.064;7.028;2024-03-17T04:37:33;101429.03;;;5.79;82.17
4834;BME280;12895;51.064;7.028;2024-03-17T04:40:24;101434.53;;;5.79;82.89
4834;BME280;12895;51.064;7.028;2024-03-17T04:43:11;101429.38;;;5.81;82.47
4834;BME280;12895;51.064;7.028;2024-03-17T04:46:00;101427.84;;;5.80;82.78
4834;BME280;12895;51.064;7.028;2024-03-17T04:48:47;101431.72;;;5.83;82.17
4834;BME280;12895;51.064;7.028;2024-03-17T04:51:34;101416.03;;;5.83;82.65
4834;BME280;12895;51.064;7.028;2024-03-17T04:54:22;101413.63;;;5.85;82.69
4834;BME280;12895;51.064;7.028;2024-03-17T04:57:09;101414.31;;;5.89;83.18
4834;BME280;12895;51.064;7.028;2024-03-17T04:59:56;101404.88;;;5.90;82.38
4834;BME280;12895;51.064;7.028;2024-03-17T05:02:43;101409.53;;;5.93;83.21
4834;BME280;12895;51.064;7.028;2024-03-17T05:05:30;101394.63;;;5.94;82.78
4834;BME280;12895;51.064;7.028;2024-03-17T05:08:17;101399.25;;;5.97;82.91
4834;BME280;12895;51.064;7.028;2024-03-17T05:11:06;101402.31;;;5.99;82.38
4834;BME280;12895;51.064;7.028;2024-03-17T05:13:52;101401.47;;;6.02;83.17
4834;BME280;12895;51.064;7.028;2024-03-17T05:16:40;101401.81;;;6.04;82.53
4834;BME280;12895;51.064;7.028;2024-03-17T05:19:27;101403.63;;;6.11;83.08
4834;BME280;12895;51.064;7.028;2024-03-17T05:22:14;101403.53;;;6.14;83.01
4834;BME280;12895;51.064;7.028;2024-03-17T05:25:01;101397.19;;;6.17;83.03
4834;BME280;12895;51.064;7.028;2024-03-17T05:27:49;101401.81;;;6.20;83.29
4834;BME280;12895;51.064;7.028;2024-03-17T05:30:36;101402.19;;;6.22;82.68
4834;BME280;12895;51.064;7.028;2024-03-17T05:33:24;101404.94;;;6.22;82.85
4834;BME280;12895;51.064;7.028;2024-03-17T05:36:11;101404.94;;;6.22;82.03
4834;BME280;12895;51.064;7.028;2024-03-17T05:38:58;101411.97;;;6.23;82.38
4834;BME280;12895;51.064;7.028;2024-03-17T05:41:46;101406.47;;;6.23;82.08
4834;BME280;12895;51.064;7.028;2024-03-17T05:44:35;101409.97;;;6.24;82.07
4834;BME280;12895;51.064;7.028;2024-03-17T05:47:35;101411.97;;;6.23;81.88
4834;BME280;12895;51.064;7.028;2024-03-17T05:50:22;101413.50;;;6.24;82.40
4834;BME280;12895;51.064;7.028;2024-03-17T05:53:09;101412.78;;;6.20;82.07
4834;BME280;12895;51.064;7.028;2024-03-17T05:55:56;101413.16;;;6.22;82.06
4834;BME280;12895;51.064;7.028;2024-03-17T05:58:43;101415.91;;;6.22;82.27
4834;BME280;12895;51.064;7.028;2024-03-17T06:01:31;101410.06;;;6.20;82.28
4834;BME280;12895;51.064;7.028;2024-03-17T06:04:18;101416.75;;;6.19;82.56
4834;BME280;12895;51.064;7.028;2024-03-17T06:07:05;101410.41;;;6.22;82.12
4834;BME280;12895;51.064;7.028;2024-03-17T06:09:52;101415.47;;;6.24;82.72
4834;BME280;12895;51.064;7.028;2024-03-17T06:12:39;101405.59;;;6.26;82.54
4834;BME280;12895;51.064;7.028;2024-03-17T06:15:26;101398.81;;;6.31;82.53
4834;BME280;12895;51.064;7.028;2024-03-17T06:18:14;101402.25;;;6.35;82.24
4834;BME280;12895;51.064;7.028;2024-03-17T06:21:05;101409.19;;;6.39;82.10
4834;BME280;12895;51.064;7.028;2024-03-17T06:23:52;101405.59;;;6.42;82.01
4834;BME280;12895;51.064;7.028;2024-03-17T06:26:39;101401.13;;;6.48;81.71
4834;BME280;12895;51.064;7.028;2024-03-17T06:29:26;101390.84;;;6.52;82.64
4834;BME280;12895;51.064;7.028;2024-03-17T06:32:15;101388.25;;;6.61;82.21
4834;BME280;12895;51.064;7.028;2024-03-17T06:35:05;101378.28;;;6.67;82.32
4834;BME280;12895;51.064;7.028;2024-03-17T06:37:52;101384.25;;;6.78;81.80
4834;BME280;12895;51.064;7.028;2024-03-17T06:40:39;101388.69;;;6.88;82.19
4834;BME280;12895;51.064;7.028;2024-03-17T06:43:26;101375.47;;;6.99;81.70
4834;BME280;12895;51.064;7.028;2024-03-17T06:46:13;101369.66;;;7.10;81.78
4834;BME280;12895;51.064;7.028;2024-03-17T06:49:00;101375.50;;;7.24;81.52
4834;BME280;12895;51.064;7.028;2024-03-17T06:51:48;101384.03;;;7.42;81.51
4834;BME280;12895;51.064;7.028;2024-03-17T06:54:35;101375.72;;;7.58;80.51
4834;BME280;12895;51.064;7.028;2024-03-17T06:57:22;101374.63;;;7.68;80.23
4834;BME280;12895;51.064;7.028;2024-03-17T07:00:10;101376.25;;;7.78;79.75
4834;BME280;12895;51.064;7.028;2024-03-17T07:03:00;101368.13;;;7.87;79.55
4834;BME280;12895;51.064;7.028;2024-03-17T07:05:54;101353.16;;;7.88;78.74
4834;BME280;12895;51.064;7.028;2024-03-17T07:08:43;101351.38;;;7.94;78.40
4834;BME280;12895;51.064;7.028;2024-03-17T07:11:30;101350.25;;;8.04;77.78
4834;BME280;12895;51.064;7.028;2024-03-17T07:14:17;101356.44;;;8.08;77.25
4834;BME280;12895;51.064;7.028;2024-03-17T07:17:06;101358.19;;;8.02;77.25
4834;BME280;12895;51.064;7.028;2024-03-17T07:19:57;101349.59;;;8.00;76.79
4834;BME280;12895;51.064;7.028;2024-03-17T07:22:44;101356.66;;;8.01;77.02
4834;BME280;12895;51.064;7.028;2024-03-17T07:25:34;101353.47;;;8.02;76.93
4834;BME280;12895;51.064;7.028;2024-03-17T07:28:22;101359.84;;;7.99;76.87
4834;BME280;12895;51.064;7.028;2024-03-17T07:31:10;101362.16;;;8.01;76.73
4834;BME280;12895;51.064;7.028;2024-03-17T07:34:05;101375.59;;;7.99;77.15
4834;BME280;12895;51.064;7.028;2024-03-17T07:36:54;101369.31;;;7.98;77.46
4834;BME280;12895;51.064;7.028;2024-03-17T07:39:46;101355.13;;;8.00;77.58
4834;BME280;12895;51.064;7.028;2024-03-17T07:42:37;101358.09;;;8.05;77.15
4834;BME280;12895;51.064;7.028;2024-03-17T07:45:24;101350.25;;;8.04;77.58
4834;BME280;12895;51.064;7.028;2024-03-17T07:48:11;101358.41;;;8.20;77.79
4834;BME280;12895;51.064;7.028;2024-03-17T07:51:03;101365.25;;;8.28;77.48
4834;BME280;12895;51.064;7.028;2024-03-17T07:53:52;101364.34;;;8.31;77.35
4834;BME280;12895;51.064;7.028;2024-03-17T07:56:40;101377.09;;;8.50;77.29
4834;BME280;12895;51.064;7.028;2024-03-17T07:59:30;101381.56;;;8.69;76.99
4834;BME280;12895;51.064;7.028;2024-03-17T08:02:17;101370.50;;;8.81;75.74
4834;BME280;12895;51.064;7.028;2024-03-17T08:05:05;101377.69;;;9.00;75.52
4834;BME280;12895;51.064;7.028;2024-03-17T08:07:54;101381.03;;;9.17;74.93
4834;BME280;12895;51.064;7.028;2024-03-17T08:10:41;101381.38;;;9.49;74.14
4834;BME280;12895;51.064;7.028;2024-03-17T08:13:29;101381.97;;;9.75;73.26
4834;BME280;12895;51.064;7.028;2024-03-17T08:16:23;101387.97;;;9.82;72.34
4834;BME280;12895;51.064;7.028;2024-03-17T08:19:11;101385.78;;;9.99;72.17
4834;BME280;12895;51.064;7.028;2024-03-17T08:21:58;101388.84;;;10.01;71.41
4834;BME280;12895;51.064;7.028;2024-03-17T08:24:46;101388.25;;;10.06;71.42
4834;BME280;12895;51.064;7.028;2024-03-17T08:27:34;101380.63;;;10.10;71.39
4834;BME280;12895;51.064;7.028;2024-03-17T08:30:21;101378.38;;;9.96;70.63
4834;BME280;12895;51.064;7.028;2024-03-17T08:33:10;101370.41;;;9.89;70.43
4834;BME280;12895;51.064;7.028;2024-03-17T08:36:23;101371.94;;;9.90;70.35
4834;BME280;12895;51.064;7.028;2024-03-17T08:39:23;101376.53;;;9.93;70.29
4834;BME280;12895;51.064;7.028;2024-03-17T08:42:11;101375.13;;;10.19;69.66
4834;BME280;12895;51.064;7.028;2024-03-17T08:44:58;101376.09;;;10.43;69.23
4834;BME280;12895;51.064;7.028;2024-03-17T08:47:51;101360.31;;;10.61;69.08
4834;BME280;12895;51.064;7.028;2024-03-17T08:50:40;101361.38;;;10.73;68.82
4834;BME280;12895;51.064;7.028;2024-03-17T08:53:28;101356.16;;;10.92;68.77
4834;BME280;12895;51.064;7.028;2024-03-17T08:56:16;101353.69;;;11.03;68.40
4834;BME280;12895;51.064;7.028;2024-03-17T08:59:03;101352.13;;;11.20;67.88
4834;BME280;12895;51.064;7.028;2024-03-17T09:01:51;101350.72;;;11.34;66.51
4834;BME280;12895;51.064;7.028;2024-03-17T09:04:42;101343.50;;;11.36;66.95
4834;BME280;12895;51.064;7.028;2024-03-17T09:07:34;101336.38;;;11.53;66.37
4834;BME280;12895;51.064;7.028;2024-03-17T09:10:22;101345.91;;;11.52;66.28
4834;BME280;12895;51.064;7.028;2024-03-17T09:13:13;101337.75;;;11.67;66.30
4834;BME280;12895;51.064;7.028;2024-03-17T09:16:01;101325.69;;;11.79;64.80
4834;BME280;12895;51.064;7.028;2024-03-17T09:18:48;101338.16;;;11.74;64.24
4834;BME280;12895;51.064;7.028;2024-03-17T09:21:35;101328.31;;;11.73;64.04
4834;BME280;12895;51.064;7.028;2024-03-17T09:24:26;101332.34;;;11.72;64.52
4834;BME280;12895;51.064;7.028;2024-03-17T09:27:13;101330.59;;;11.75;64.08
4834;BME280;12895;51.064;7.028;2024-03-17T09:30:05;101331.38;;;11.75;64.46
4834;BME280;12895;51.064;7.028;2024-03-17T09:32:55;101332.78;;;12.03;63.80
4834;BME280;12895;51.064;7.028;2024-03-17T09:35:42;101336.81;;;12.26;63.50
4834;BME280;12895;51.064;7.028;2024-03-17T09:38:29;101331.69;;;12.33;63.57
4834;BME280;12895;51.064;7.028;2024-03-17T09:41:20;101342.66;;;12.28;63.75
4834;BME280;12895;51.064;7.028;2024-03-17T09:44:11;101336.94;;;12.31;63.67
4834;BME280;12895;51.064;7.028;2024-03-17T09:47:00;101344.88;;;12.38;63.37
4834;BME280;12895;51.064;7.028;2024-03-17T09:49:49;101338.03;;;12.48;63.19
4834;BME280;12895;51.064;7.028;2024-03-17T09:52:37;101334.63;;;12.53;63.37
4834;BME280;12895;51.064;7.028;2024-03-17T09:55:25;101332.78;;;12.74;62.76
4834;BME280;12895;51.064;7.028;2024-03-17T09:58:16;101344.78;;;12.94;62.14
4834;BME280;12895;51.064;7.028;2024-03-17T10:01:04;101341.94;;;13.03;61.69
4834;BME280;12895;51.064;7.028;2024-03-17T10:03:52;101344.69;;;13.03;61.77
4834;BME280;12895;51.064;7.028;2024-03-17T10:06:45;101339.84;;;12.98;61.81
4834;BME280;12895;51.064;7.028;2024-03-17T10:09:33;101335.72;;;13.08;61.62
4834;BME280;12895;51.064;7.028;2024-03-17T10:12:27;101333.69;;;13.09;61.52
4834;BME280;12895;51.064;7.028;2024-03-17T10:15:15;101346.25;;;13.33;60.70
4834;BME280;12895;51.064;7.028;2024-03-17T10:18:20;101342.81;;;13.38;60.88
4834;BME280;12895;51.064;7.028;2024-03-17T10:21:30;101342.63;;;13.42;61.25
4834;BME280;12895;51.064;7.028;2024-03-17T10:24:20;101348.66;;;13.26;60.74
4834;BME280;12895;51.064;7.028;2024-03-17T10:27:10;101349.44;;;13.26;61.00
4834;BME280;12895;51.064;7.028;2024-03-17T10:29:57;101352.69;;;13.39;60.60
4834;BME280;12895;51.064;7.028;2024-03-17T10:32:46;101339.84;;;13.27;60.77
4834;BME280;12895;51.064;7.028;2024-03-17T10:35:40;101349.91;;;13.39;60.29
4834;BME280;12895;51.064;7.028;2024-03-17T10:38:29;101339.94;;;13.47;60.30
4834;BME280;12895;51.064;7.028;2024-03-17T10:41:16;101342.31;;;13.54;60.66
4834;BME280;12895;51.064;7.028;2024-03-17T10:44:08;101334.06;;;13.74;60.50
4834;BME280;12895;51.064;7.028;2024-03-17T10:46:57;101333.94;;;13.83;60.02
4834;BME280;12895;51.064;7.028;2024-03-17T10:49:45;101332.19;;;14.00;59.35
4834;BME280;12895;51.064;7.028;2024-03-17T10:52:33;101330.88;;;13.81;59.82
4834;BME280;12895;51.064;7.028;2024-03-17T10:55:23;101329.72;;;13.87;59.26
4834;BME280;12895;51.064;7.028;2024-03-17T10:58:23;101327.75;;;14.08;59.34
4834;BME280;12895;51.064;7.028;2024-03-17T11:01:16;101335.59;;;14.24;58.71
4834;BME280;12895;51.064;7.028;2024-03-17T11:04:03;101328.53;;;14.08;59.27
4834;BME280;12895;51.064;7.028;2024-03-17T11:06:58;101332.50;;;14.22;59.48
4834;BME280;12895;51.064;7.028;2024-03-17T11:09:47;101339.63;;;14.43;58.41
4834;BME280;12895;51.064;7.028;2024-03-17T11:12:45;101326.94;;;14.22;58.79
4834;BME280;12895;51.064;7.028;2024-03-17T11:15:39;101326.41;;;14.58;58.29
4834;BME280;12895;51.064;7.028;2024-03-17T11:18:34;101330.44;;;14.77;58.00
4834;BME280;12895;51.064;7.028;2024-03-17T11:21:22;101330.44;;;14.77;58.19
4834;BME280;12895;51.064;7.028;2024-03-17T11:24:20;101328.28;;;14.66;58.13
4834;BME280;12895;51.064;7.028;2024-03-17T11:27:40;101330.53;;;14.88;58.07
4834;BME280;12895;51.064;7.028;2024-03-17T11:30:44;101331.25;;;14.83;58.24
4834;BME280;12895;51.064;7.028;2024-03-17T11:33:47;101320.66;;;14.87;58.55
4834;BME280;12895;51.064;7.028;2024-03-17T11:36:38;101329.59;;;14.91;58.05
4834;BME280;12895;51.064;7.028;2024-03-17T11:39:51;101335.84;;;15.11;57.05
4834;BME280;12895;51.064;7.028;2024-03-17T11:43:00;101316.72;;;14.99;57.84
4834;BME280;12895;51.064;7.028;2024-03-17T11:45:55;101322.31;;;15.24;58.15
4834;BME280;12895;51.064;7.028;2024-03-17T11:48:45;101319.03;;;15.26;57.58
4834;BME280;12895;51.064;7.028;2024-03-17T11:51:42;101308.31;;;15.19;57.40
4834;BME280;12895;51.064;7.028;2024-03-17T11:54:32;101298.19;;;15.16;57.51
4834;BME280;12895;51.064;7.028;2024-03-17T11:57:27;101294.63;;;15.41;57.32
4834;BME280;12895;51.064;7.028;2024-03-17T12:00:22;101295.44;;;15.47;57.00
4834;BME280;12895;51.064;7.028;2024-03-17T12:03:12;101288.34;;;15.46;56.44
4834;BME280;12895;51.064;7.028;2024-03-17T12:05:59;101292.81;;;15.38;56.05
4834;BME280;12895;51.064;7.028;2024-03-17T12:08:47;101281.38;;;15.30;56.93
4834;BME280;12895;51.064;7.028;2024-03-17T12:11:37;101278.09;;;15.32;56.96
4834;BME280;12895;51.064;7.028;2024-03-17T12:14:27;101278.63;;;15.36;57.59
4834;BME280;12895;51.064;7.028;2024-03-17T12:17:20;101274.59;;;15.37;57.04
4834;BME280;12895;51.064;7.028;2024-03-17T12:20:18;101264.38;;;15.59;57.24
4834;BME280;12895;51.064;7.028;2024-03-17T12:23:12;101271.94;;;15.90;56.35
4834;BME280;12895;51.064;7.028;2024-03-17T12:26:03;101268.13;;;15.93;55.87
4834;BME280;12895;51.064;7.028;2024-03-17T12:28:50;101266.94;;;15.63;55.67
4834;BME280;12895;51.064;7.028;2024-03-17T12:31:38;101244.56;;;15.94;55.56
4834;BME280;12895;51.064;7.028;2024-03-17T12:34:26;101252.22;;;15.99;55.29
4834;BME280;12895;51.064;7.028;2024-03-17T12:37:16;101255.69;;;15.88;55.89
4834;BME280;12895;51.064;7.028;2024-03-17T12:40:18;101243.31;;;16.00;55.60
4834;BME280;12895;51.064;7.028;2024-03-17T12:43:08;101243.63;;;16.08;55.50
4834;BME280;12895;51.064;7.028;2024-03-17T12:46:00;101233.19;;;16.03;55.71
4834;BME280;12895;51.064;7.028;2024-03-17T12:48:59;101237.31;;;16.13;55.39
4834;BME280;12895;51.064;7.028;2024-03-17T12:51:48;101222.06;;;16.08;54.98
4834;BME280;12895;51.064;7.028;2024-03-17T12:54:44;101226.50;;;16.31;54.48
4834;BME280;12895;51.064;7.028;2024-03-17T12:58:06;101214.81;;;16.33;54.43
4834;BME280;12895;51.064;7.028;2024-03-17T13:01:12;101206.72;;;16.35;54.45
4834;BME280;12895;51.064;7.028;2024-03-17T13:04:06;101207.50;;;16.41;54.29
4834;BME280;12895;51.064;7.028;2024-03-17T13:06:54;101202.72;;;16.47;53.87
4834;BME280;12895;51.064;7.028;2024-03-17T13:09:42;101204.91;;;16.26;55.04
4834;BME280;12895;51.064;7.028;2024-03-17T13:12:30;101197.00;;;16.14;54.90
4834;BME280;12895;51.064;7.028;2024-03-17T13:15:18;101189.91;;;16.13;54.92
4834;BME280;12895;51.064;7.028;2024-03-17T13:18:06;101182.28;;;16.08;54.54
4834;BME280;12895;51.064;7.028;2024-03-17T13:20:56;101167.03;;;15.98;55.00
4834;BME280;12895;51.064;7.028;2024-03-17T13:23:45;101162.41;;;15.84;55.46
4834;BME280;12895;51.064;7.028;2024-03-17T13:26:33;101157.31;;;15.77;55.55
4834;BME280;12895;51.064;7.028;2024-03-17T13:29:20;101155.78;;;15.76;55.67
4834;BME280;12895;51.064;7.028;2024-03-17T13:32:11;101145.63;;;15.73;56.06
4834;BME280;12895;51.064;7.028;2024-03-17T13:35:01;101149.91;;;15.68;56.07
4834;BME280;12895;51.064;7.028;2024-03-17T13:37:51;101149.25;;;15.84;56.17
4834;BME280;12895;51.064;7.028;2024-03-17T13:40:46;101143.28;;;15.60;56.58
4834;BME280;12895;51.064;7.028;2024-03-17T13:43:56;101133.63;;;15.56;56.82
4834;BME280;12895;51.064;7.028;2024-03-17T13:46:54;101135.63;;;15.44;56.97
4834;BME280;12895;51.064;7.028;2024-03-17T13:49:49;101140.69;;;15.46;56.16
4834;BME280;12895;51.064;7.028;2024-03-17T13:52:39;101139.09;;;15.34;56.23
4834;BME280;12895;51.064;7.028;2024-03-17T13:55:28;101141.78;;;15.23;56.78
4834;BME280;12895;51.064;7.028;2024-03-17T13:58:26;101140.72;;;15.15;56.59
4834;BME280;12895;51.064;7.028;2024-03-17T14:01:14;101138.25;;;15.28;56.58
4834;BME280;12895;51.064;7.028;2024-03-17T14:04:01;101140.13;;;15.36;56.06
4834;BME280;12895;51.064;7.028;2024-03-17T14:06:57;101137.31;;;15.31;56.47
4834;BME280;12895;51.064;7.028;2024-03-17T14:09:45;101138.84;;;15.32;56.49
4834;BME280;12895;51.064;7.028;2024-03-17T14:12:35;101129.88;;;15.22;57.02
4834;BME280;12895;51.064;7.028;2024-03-17T14:15:22;101130.19;;;15.30;56.33
4834;BME280;12895;51.064;7.028;2024-03-17T14:18:13;101128.13;;;15.25;56.82
4834;BME280;12895;51.064;7.028;2024-03-17T14:21:03;101123.66;;;15.33;56.90
4834;BME280;12895;51.064;7.028;2024-03-17T14:23:51;101121.56;;;15.28;57.07
4834;BME280;12895;51.064;7.028;2024-03-17T14:26:44;101117.63;;;15.40;56.71
4834;BME280;12895;51.064;7.028;2024-03-17T14:29:34;101126.03;;;15.51;56.13
4834;BME280;12895;51.064;7.028;2024-03-17T14:32:22;101120.78;;;15.64;54.90
4834;BME280;12895;51.064;7.028;2024-03-17T14:35:15;101117.63;;;15.40;54.28
4834;BME280;12895;51.064;7.028;2024-03-17T14:38:04;101113.81;;;15.43;54.50
4834;BME280;12895;51.064;7.028;2024-03-17T14:40:55;101108.09;;;15.63;53.97
4834;BME280;12895;51.064;7.028;2024-03-17T14:43:42;101105.59;;;15.76;53.63
4834;BME280;12895;51.064;7.028;2024-03-17T14:46:31;101090.94;;;15.81;53.61
4834;BME280;12895;51.064;7.028;2024-03-17T14:49:21;101086.44;;;16.00;53.49
4834;BME280;12895;51.064;7.028;2024-03-17T14:52:20;101091.78;;;16.03;53.61
4834;BME280;12895;51.064;7.028;2024-03-17T14:55:08;101076.31;;;16.08;53.84
4834;BME280;12895;51.064;7.028;2024-03-17T14:57:56;101079.84;;;16.14;53.98
4834;BME280;12895;51.064;7.028;2024-03-17T15:00:43;101082.41;;;16.23;53.63
4834;BME280;12895;51.064;7.028;2024-03-17T15:03:37;101080.91;;;16.22;54.21
4834;BME280;12895;51.064;7.028;2024-03-17T15:06:33;101071.25;;;16.28;54.24
4834;BME280;12895;51.064;7.028;2024-03-17T15:09:36;101057.84;;;16.32;53.85